Time;durP1;ratioP1;P1;durP2;ratioP2;P2;SDS_P1;SDS_P2;PMS_P1;PMS_P2;Temp;Humidity;BMP_temperature;BMP_pressure;BME280_temperature;BME280_humidity;BME280_pressure;Samples;Min_cycle;Max_cycle;Signal;HPM_P1;HPM_P2
2023/05/11 00:00:29;;;;;;;;;5.00;4.00;;;;;16.65;60.53;101057.38;2061747;28;46669;-61
2023/05/11 00:01:29;;;;;;;;;37.00;32.50;;;;;16.66;60.54;101056.44;2061787;28;46047;-63
2023/05/11 00:02:29;;;;;;;;;22.00;21.25;;;;;16.65;60.27;101052.88;2060538;28;46047;-63
2023/05/11 00:03:30;;;;;;;;;20.75;19.00;;;;;16.63;60.70;101053.88;2062455;28;45968;-62
2023/05/11 00:04:30;;;;;;;;;29.25;26.75;;;;;16.60;60.53;101057.53;2061657;28;46155;-61
2023/05/11 00:05:30;;;;;;;;;16.00;16.00;;;;;16.59;60.33;101055.81;2061970;28;46237;-61
2023/05/11 00:06:31;;;;;;;;;9.67;8.67;;;;;16.59;60.55;101053.13;2061645;28;46719;-62
2023/05/11 00:07:31;;;;;;;;;10.75;10.25;;;;;16.59;60.39;101055.81;2062128;28;46481;-61
2023/05/11 00:08:31;;;;;;;;;15.50;15.50;;;;;16.59;60.67;101058.47;2053577;28;46475;-62
2023/05/11 00:09:32;;;;;;;;;50.50;42.00;;;;;16.58;60.54;101056.75;2054153;28;46348;-64
2023/05/11 00:10:32;;;;;;;;;18.75;18.00;;;;;16.59;60.84;101060.28;2061841;28;46327;-62
2023/05/11 00:11:33;;;;;;;;;24.25;24.25;;;;;16.57;60.61;101046.97;2062554;28;45738;-60
2023/05/11 00:12:33;;;;;;;;;27.50;26.75;;;;;16.55;60.46;101051.53;2053318;28;46725;-62
2023/05/11 00:13:33;;;;;;;;;8.33;7.00;;;;;16.54;60.56;101047.09;2054953;28;46693;-62
2023/05/11 00:14:34;;;;;;;;;7.33;6.67;;;;;16.55;60.34;101047.97;2061924;28;45191;-62
2023/05/11 00:15:34;;;;;;;;;20.00;18.00;;;;;16.52;60.22;101043.63;2062885;28;46412;-61
2023/05/11 00:16:34;;;;;;;;;4.75;4.75;;;;;16.52;60.28;101048.09;2062083;28;46799;-61
2023/05/11 00:17:35;;;;;;;;;8.00;8.00;;;;;16.48;60.50;101047.34;2062126;28;45892;-63
2023/05/11 00:18:35;;;;;;;;;24.25;20.25;;;;;16.47;60.37;101043.78;2061698;28;45932;-62
2023/05/11 00:19:36;;;;;;;;;10.33;8.33;;;;;16.46;60.72;101049.22;2062215;28;46257;-61
2023/05/11 00:20:36;;;;;;;;;3.33;3.33;;;;;16.44;60.67;101048.41;2046129;28;45467;-64
2023/05/11 00:21:37;;;;;;;;;6.00;6.00;;;;;16.44;60.38;101043.03;2048362;28;46536;-62
2023/05/11 00:22:38;;;;;;;;;18.00;15.50;;;;;16.43;60.48;101047.53;2061924;28;46447;-62
2023/05/11 00:23:38;;;;;;;;;24.00;21.25;;;;;16.43;60.80;101039.50;2071651;28;45350;-63
2023/05/11 00:24:38;;;;;;;;;6.00;4.67;;;;;16.42;60.41;101051.16;2071579;28;46585;-63
2023/05/11 00:25:39;;;;;;;;;5.33;5.33;;;;;16.43;60.72;101043.97;2070933;28;46127;-61
2023/05/11 00:26:39;;;;;;;;;13.33;12.33;;;;;16.43;60.63;101042.16;2070480;28;46528;-62
2023/05/11 00:27:44;;;;;;;;;16.75;16.00;;;;;16.44;60.93;101041.25;2071311;28;46682;-62
2023/05/11 00:28:45;;;;;;;;;3.50;3.50;;;;;16.44;60.54;101051.09;2070444;28;46242;-61
2023/05/11 00:29:45;;;;;;;;;7.67;6.33;;;;;16.45;60.48;101040.31;2063305;28;46405;-62
2023/05/11 00:30:45;;;;;;;;;9.00;9.00;;;;;16.46;60.78;101039.38;2054134;28;46323;-60
2023/05/11 00:31:49;;;;;;;;;7.67;7.67;;;;;16.48;60.38;101040.16;2063028;28;46789;-59
2023/05/11 00:32:50;;;;;;;;;6.50;5.50;;;;;16.49;60.82;101039.22;2071034;28;45697;-61
2023/05/11 00:33:53;;;;;;;;;5.75;5.75;;;;;16.52;60.94;101035.56;2070285;28;46598;-62
2023/05/11 00:34:53;;;;;;;;;10.50;8.00;;;;;16.56;61.19;101037.19;2070052;28;45362;-60
2023/05/11 00:35:53;;;;;;;;;27.50;25.75;;;;;16.57;60.85;101036.25;2070825;28;46608;-62
2023/05/11 00:36:54;;;;;;;;;6.00;6.00;;;;;16.59;60.65;101033.50;2069771;28;46548;-60
2023/05/11 00:37:55;;;;;;;;;10.50;10.50;;;;;16.59;60.64;101033.50;2071599;28;46541;-64
2023/05/11 00:38:56;;;;;;;;;5.75;5.75;;;;;16.58;60.64;101034.44;2070704;28;46685;-62
2023/05/11 00:39:56;;;;;;;;;4.00;4.00;;;;;16.60;60.30;101036.13;2079096;28;46477;-62
2023/05/11 00:40:57;;;;;;;;;6.33;6.33;;;;;16.60;60.58;101033.44;2070300;28;46572;-61
2023/05/11 00:41:57;;;;;;;;;8.00;5.33;;;;;16.60;60.33;101036.13;2071356;28;46165;-63
2023/05/11 00:42:57;;;;;;;;;7.00;7.00;;;;;16.60;60.47;101033.44;2070079;28;46384;-63
2023/05/11 00:43:58;;;;;;;;;7.00;7.00;;;;;16.61;60.79;101035.16;2071510;28;46463;-62
2023/05/11 00:44:58;;;;;;;;;7.00;7.00;;;;;16.61;60.58;101027.13;2070111;28;46355;-62
2023/05/11 00:45:59;;;;;;;;;9.00;7.00;;;;;16.61;60.24;101035.16;2071886;28;45960;-61
2023/05/11 00:46:59;;;;;;;;;6.00;5.75;;;;;16.59;60.81;101037.06;2070625;28;47075;-60
2023/05/11 00:48:00;;;;;;;;;5.00;5.00;;;;;16.57;60.34;101030.88;2071480;28;46793;-61
2023/05/11 00:49:01;;;;;;;;;5.00;4.00;;;;;16.57;60.30;101038.06;2061876;28;45719;-62
2023/05/11 00:50:01;;;;;;;;;6.33;6.33;;;;;16.54;60.35;101028.34;2070193;28;45589;-61
2023/05/11 00:51:02;;;;;;;;;9.00;9.00;;;;;16.54;60.37;101030.16;2069855;28;46495;-61
2023/05/11 00:52:03;;;;;;;;;5.25;5.25;;;;;16.53;60.50;101029.28;2070941;28;47083;-62
2023/05/11 00:53:03;;;;;;;;;7.33;5.67;;;;;16.53;60.07;101031.97;2069066;28;46482;-62
2023/05/11 00:54:04;;;;;;;;;6.00;5.00;;;;;16.53;60.55;101029.28;2071620;28;46344;-61
2023/05/11 00:55:05;;;;;;;;;5.00;5.00;;;;;16.57;60.12;101035.38;2069478;28;46259;-63
2023/05/11 00:56:06;;;;;;;;;5.00;5.00;;;;;16.55;60.17;101031.91;2070379;28;46769;-62
2023/05/11 00:57:07;;;;;;;;;5.67;4.67;;;;;16.56;59.93;101025.59;2066241;28;46554;-62
2023/05/11 00:58:07;;;;;;;;;5.25;4.00;;;;;16.54;60.10;101027.47;2071425;28;46678;-63
2023/05/11 00:59:08;;;;;;;;;5.00;4.33;;;;;16.53;60.24;101023.06;2069830;28;47840;-61
2023/05/11 01:00:09;;;;;;;;;3.33;3.33;;;;;16.52;59.97;101026.66;2084516;28;45523;-60
2023/05/11 01:01:09;;;;;;;;;3.50;3.00;;;;;16.50;60.07;101024.03;2079641;28;46934;-62
2023/05/11 01:02:10;;;;;;;;;4.00;4.00;;;;;16.51;60.08;101024.91;2070980;28;46335;-60
2023/05/11 01:03:12;;;;;;;;;5.33;4.67;;;;;16.51;60.31;101019.53;2070942;28;45651;-62
2023/05/11 01:04:12;;;;;;;;;5.50;3.50;;;;;16.48;59.83;101016.06;2071091;28;46422;-61
2023/05/11 01:05:13;;;;;;;;;4.00;4.00;;;;;16.48;59.78;101021.41;2069820;28;46509;-61
2023/05/11 01:06:45;;;;;;;;;4.00;2.00;;;;;16.48;60.27;101018.72;2070418;28;46482;-62
2023/05/11 01:08:00;;;;;;;;;4.50;3.00;;;;;16.47;60.29;101029.50;2051785;28;46798;-62
2023/05/11 01:09:23;;;;;;;;;4.25;4.25;;;;;16.45;60.26;101024.22;2037056;28;47080;-62
2023/05/11 01:10:37;;;;;;;;;5.75;4.00;;;;;16.44;60.20;101021.63;2040325;28;46440;-61
2023/05/11 01:11:47;;;;;;;;;3.00;3.00;;;;;16.41;60.13;101014.59;2045347;28;46787;-61
2023/05/11 01:13:12;;;;;;;;;1.50;1.25;;;;;16.40;60.24;101023.56;2044678;28;46523;-63
2023/05/11 01:14:24;;;;;;;;;4.50;3.50;;;;;16.40;60.09;101023.56;2045701;28;46478;-61
2023/05/11 01:15:36;;;;;;;;;4.50;3.00;;;;;16.40;60.54;101030.72;2034956;28;47017;-62
2023/05/11 01:16:41;;;;;;;;;3.00;3.00;;;;;16.40;60.05;101020.00;2036951;28;46702;-62
2023/05/11 01:18:22;;;;;;;;;2.25;2.25;;;;;16.39;60.58;101024.50;2039004;28;46328;-60
2023/05/11 01:19:45;;;;;;;;;1.25;1.25;;;;;16.38;60.54;101022.72;2005859;29;46522;-62
2023/05/11 01:20:48;;;;;;;;;3.00;2.00;;;;;16.38;60.45;101012.00;2006101;29;46930;-61
2023/05/11 01:21:50;;;;;;;;;4.25;4.00;;;;;16.38;60.32;101021.84;2005038;29;46735;-62
2023/05/11 01:23:11;;;;;;;;;3.25;3.00;;;;;16.39;60.64;101016.47;2007141;29;46640;-61
2023/05/11 01:24:21;;;;;;;;;3.50;3.00;;;;;16.39;60.51;101019.13;2006408;29;47135;-61
2023/05/11 01:25:43;;;;;;;;;3.00;2.00;;;;;16.40;60.36;101020.00;2006280;29;46508;-61
2023/05/11 01:27:02;;;;;;;;;3.50;3.50;;;;;16.41;60.29;101019.06;2004521;29;46514;-63
2023/05/11 01:28:30;;;;;;;;;4.00;4.00;;;;;16.42;60.64;101015.44;2006070;29;46547;-61
2023/05/11 01:30:06;;;;;;;;;6.00;3.50;;;;;16.42;60.72;101015.44;2005844;29;46552;-61
2023/05/11 01:31:09;;;;;;;;;3.50;3.50;;;;;16.41;60.74;101019.06;1984664;29;46311;-62
2023/05/11 01:32:18;;;;;;;;;2.25;2.25;;;;;16.39;60.70;101016.47;1984392;29;46137;-61
2023/05/11 01:33:26;;;;;;;;;2.25;2.25;;;;;16.38;60.59;101020.03;1984508;29;46739;-59
2023/05/11 01:34:32;;;;;;;;;2.25;2.00;;;;;16.36;60.63;101021.91;1985119;29;45737;-62
2023/05/11 01:35:36;;;;;;;;;3.75;2.25;;;;;16.35;60.33;101021.97;1983457;29;46233;-62
2023/05/11 01:36:43;;;;;;;;;1.00;1.00;;;;;16.32;60.72;101028.34;1983687;29;46395;-62
2023/05/11 01:37:52;;;;;;;;;2.50;2.50;;;;;16.30;60.68;101024.84;1975819;29;46621;-62
2023/05/11 01:38:57;;;;;;;;;2.75;2.50;;;;;16.28;60.79;101025.84;1977810;29;45867;-62
2023/05/11 01:40:02;;;;;;;;;5.25;2.50;;;;;16.28;60.52;101023.19;1985575;29;46939;-63
2023/05/11 01:41:11;;;;;;;;;5.75;3.75;;;;;16.25;60.93;101026.81;1983906;29;46868;-62
2023/05/11 01:42:14;;;;;;;;;4.00;3.00;;;;;16.24;60.78;101029.56;1983081;29;46711;-62
2023/05/11 01:43:21;;;;;;;;;2.00;2.00;;;;;16.22;61.10;101018.06;1978280;29;46323;-62
2023/05/11 01:44:26;;;;;;;;;2.50;2.50;;;;;16.24;60.99;101024.22;1977601;29;46918;-62
2023/05/11 01:45:29;;;;;;;;;2.00;2.00;;;;;16.23;60.87;101023.34;1991719;29;46572;-61
2023/05/11 01:46:32;;;;;;;;;5.00;3.25;;;;;16.23;60.65;101023.34;2008262;29;45827;-62
2023/05/11 01:47:36;;;;;;;;;1.75;1.00;;;;;16.22;60.99;101023.41;2008149;29;46932;-62
2023/05/11 01:48:39;;;;;;;;;2.00;2.00;;;;;16.22;61.07;101023.41;2007830;29;46441;-62
2023/05/11 01:49:43;;;;;;;;;3.00;3.00;;;;;16.21;60.84;101021.66;2005718;29;46016;-61
2023/05/11 01:50:45;;;;;;;;;1.25;1.25;;;;;16.21;60.97;101022.53;2010757;29;46559;-63
2023/05/11 01:51:48;;;;;;;;;2.00;2.00;;;;;16.22;61.01;101026.09;2007218;29;46349;-60
2023/05/11 01:52:51;;;;;;;;;2.00;2.00;;;;;16.22;61.15;101032.31;2008027;29;46554;-59
2023/05/11 01:53:53;;;;;;;;;2.00;1.75;;;;;16.21;60.73;101024.34;2001876;29;46108;-62
2023/05/11 01:54:56;;;;;;;;;1.00;1.00;;;;;16.19;60.87;101025.28;2002227;29;46508;-62
2023/05/11 01:55:58;;;;;;;;;1.25;1.25;;;;;16.17;61.09;101021.81;2026555;28;46695;-62
2023/05/11 01:57:01;;;;;;;;;1.50;1.50;;;;;16.17;61.03;101024.47;2028111;29;46450;-63
2023/05/11 01:58:05;;;;;;;;;0.25;0.25;;;;;16.15;61.15;101026.34;2031478;29;46604;-62
2023/05/11 01:59:06;;;;;;;;;2.50;0.75;;;;;16.15;61.16;101029.03;2030752;29;46366;-61
2023/05/11 02:00:07;;;;;;;;;2.00;2.00;;;;;16.16;61.01;101021.88;2029086;29;46282;-62
2023/05/11 02:01:10;;;;;;;;;1.00;1.00;;;;;16.16;61.06;101028.09;2030922;29;46417;-62
2023/05/11 02:02:11;;;;;;;;;2.00;2.00;;;;;16.15;60.77;101026.34;2022728;29;46699;-62
2023/05/11 02:03:14;;;;;;;;;1.75;1.75;;;;;16.15;61.15;101022.81;2024309;29;46819;-62
2023/05/11 02:04:17;;;;;;;;;2.00;2.00;;;;;16.14;61.18;101027.28;2028500;29;46790;-61
2023/05/11 02:05:21;;;;;;;;;2.00;2.00;;;;;16.12;61.12;101021.09;2031479;29;46690;-62
2023/05/11 02:06:25;;;;;;;;;2.00;2.00;;;;;16.13;60.93;101025.53;2055604;28;46739;-63
2023/05/11 02:07:29;;;;;;;;;2.00;1.75;;;;;16.14;60.66;101026.41;2055758;28;46420;-62
2023/05/11 02:08:31;;;;;;;;;2.00;2.00;;;;;16.13;60.77;101027.31;2055851;28;46802;-62
2023/05/11 02:09:34;;;;;;;;;0.75;0.75;;;;;16.12;60.94;101028.25;2055584;28;46385;-62
2023/05/11 02:10:37;;;;;;;;;1.00;1.00;;;;;16.12;61.19;101031.81;2054180;28;46325;-63
2023/05/11 02:11:40;;;;;;;;;1.00;1.00;;;;;16.11;61.13;101030.06;2055436;28;46877;-60
2023/05/11 02:12:43;;;;;;;;;1.00;1.00;;;;;16.11;61.15;101031.88;2057029;28;45633;-62
2023/05/11 02:13:45;;;;;;;;;1.00;0.50;;;;;16.09;61.41;101026.56;2056038;28;46055;-62
2023/05/11 02:14:47;;;;;;;;;0.75;0.75;;;;;16.10;61.27;101036.34;2063843;28;46777;-61
2023/05/11 02:15:51;;;;;;;;;1.75;1.75;;;;;16.08;61.02;101029.31;2071786;28;46454;-62
2023/05/11 02:16:53;;;;;;;;;1.50;1.50;;;;;16.10;61.23;101032.81;2072792;28;46359;-61
2023/05/11 02:17:55;;;;;;;;;0.75;0.75;;;;;16.08;61.58;101032.00;2072112;28;46260;-63
2023/05/11 02:18:57;;;;;;;;;3.00;1.00;;;;;16.09;61.21;101037.28;2071654;28;46819;-61
2023/05/11 02:20:00;;;;;;;;;1.00;1.00;;;;;16.09;61.22;101033.75;2072883;28;46626;-62
2023/05/11 02:21:02;;;;;;;;;1.00;1.00;;;;;16.08;61.59;101034.66;2071862;28;46515;-62
2023/05/11 02:22:05;;;;;;;;;1.50;1.50;;;;;16.08;61.46;101037.34;2067297;28;47032;-62
2023/05/11 02:23:07;;;;;;;;;3.00;1.00;;;;;16.07;61.14;101036.47;2063370;28;47223;-61
2023/05/11 02:24:08;;;;;;;;;2.00;2.00;;;;;16.06;61.15;101037.41;2071080;28;46963;-62
2023/05/11 02:25:10;;;;;;;;;1.00;1.00;;;;;16.06;61.54;101045.44;2072485;28;46525;-61
2023/05/11 02:26:13;;;;;;;;;1.00;1.00;;;;;16.05;61.11;101035.66;2071287;28;46787;-60
2023/05/11 02:27:13;;;;;;;;;2.25;1.00;;;;;16.05;61.16;101042.84;2072653;28;46703;-60
2023/05/11 02:28:14;;;;;;;;;2.00;2.00;;;;;16.04;61.53;101041.97;2071175;28;46713;-62
2023/05/11 02:29:15;;;;;;;;;0.00;0.00;;;;;16.04;61.42;101038.41;2072637;28;46441;-62
2023/05/11 02:30:15;;;;;;;;;3.00;3.00;;;;;16.03;61.89;101040.22;2067548;28;46270;-63
2023/05/11 02:31:19;;;;;;;;;2.00;1.00;;;;;16.02;61.59;101046.50;2071742;28;46229;-62
2023/05/11 02:32:23;;;;;;;;;1.00;1.00;;;;;16.04;61.99;101043.75;2071389;28;46331;-62
2023/05/11 02:33:42;;;;;;;;;0.75;0.75;;;;;16.03;61.63;101042.03;2071232;28;46688;-61
2023/05/11 02:34:57;;;;;;;;;4.25;1.00;;;;;16.02;61.53;101038.47;2073039;28;46596;-63
2023/05/11 02:35:58;;;;;;;;;1.00;1.00;;;;;16.03;61.41;101039.34;2071810;28;46499;-63
2023/05/11 02:37:03;;;;;;;;;1.50;1.50;;;;;16.02;61.64;101042.97;2072032;28;46474;-62
2023/05/11 02:38:04;;;;;;;;;0.75;0.75;;;;;16.01;62.00;101036.72;2070847;28;46056;-60
2023/05/11 02:39:08;;;;;;;;;1.50;1.50;;;;;16.00;62.22;101039.44;2072310;28;46333;-62
2023/05/11 02:40:24;;;;;;;;;0.75;0.75;;;;;16.01;61.73;101036.72;2069760;28;47011;-63
2023/05/11 02:41:27;;;;;;;;;1.50;1.25;;;;;16.01;61.69;101034.06;2071588;28;46413;-59
2023/05/11 02:42:32;;;;;;;;;3.00;2.75;;;;;16.01;61.64;101038.53;2072176;28;46319;-60
2023/05/11 02:43:39;;;;;;;;;0.75;0.75;;;;;16.01;61.70;101038.53;2071018;28;46725;-62
2023/05/11 02:44:49;;;;;;;;;2.00;1.00;;;;;16.00;61.99;101032.28;2071185;28;46745;-61
2023/05/11 02:45:52;;;;;;;;;1.00;1.00;;;;;16.00;61.81;101039.44;2062792;28;46775;-61
2023/05/11 02:46:54;;;;;;;;;0.50;0.50;;;;;16.00;61.98;101039.44;2062873;28;46357;-61
2023/05/11 02:47:57;;;;;;;;;1.50;1.50;;;;;16.00;62.02;101042.13;2070495;28;46885;-59
2023/05/11 02:49:01;;;;;;;;;2.00;2.00;;;;;15.98;61.77;101028.78;2070662;28;46935;-61
2023/05/11 02:50:03;;;;;;;;;5.00;2.00;;;;;15.97;62.23;101034.22;2071493;28;46556;-60
2023/05/11 02:51:07;;;;;;;;;1.50;1.50;;;;;15.96;62.04;101035.16;2079206;28;47127;-59
2023/05/11 02:52:09;;;;;;;;;1.25;1.25;;;;;15.95;62.37;101036.94;2076648;28;46526;-61
2023/05/11 02:53:14;;;;;;;;;2.50;1.00;;;;;15.94;62.02;101035.22;2072456;28;46353;-63
2023/05/11 02:54:16;;;;;;;;;2.75;2.75;;;;;15.94;62.20;101039.69;2069000;28;46607;-60
2023/05/11 02:55:19;;;;;;;;;2.00;2.00;;;;;15.94;62.49;101037.03;2072688;28;47014;-62
2023/05/11 02:56:20;;;;;;;;;1.00;1.00;;;;;15.93;62.36;101029.94;2077594;28;46604;-62
2023/05/11 02:57:22;;;;;;;;;2.00;2.00;;;;;15.93;62.53;101035.28;2078242;28;46040;-61
2023/05/11 02:58:22;;;;;;;;;1.00;1.00;;;;;15.92;62.25;101033.53;2078492;28;46765;-61
2023/05/11 02:59:24;;;;;;;;;1.67;1.00;;;;;15.90;62.69;101033.59;2072583;28;46410;-58
2023/05/11 03:00:24;;;;;;;;;3.25;3.25;;;;;15.90;62.65;101030.91;2071729;28;46752;-62
2023/05/11 03:01:25;;;;;;;;;1.33;1.33;;;;;15.90;63.11;101030.91;2071990;28;46500;-62
2023/05/11 03:02:25;;;;;;;;;1.33;1.00;;;;;15.88;62.59;101030.97;2071308;28;46522;-62
2023/05/11 03:03:26;;;;;;;;;1.00;1.00;;;;;15.88;62.49;101038.13;2071942;28;46336;-61
2023/05/11 03:04:26;;;;;;;;;1.67;1.67;;;;;15.88;63.02;101033.66;2070820;28;46218;-61
2023/05/11 03:05:27;;;;;;;;;1.00;1.00;;;;;15.89;62.63;101031.84;2071896;28;46418;-62
2023/05/11 03:06:27;;;;;;;;;4.00;2.33;;;;;15.89;62.91;101027.38;2070711;28;46047;-62
2023/05/11 03:07:28;;;;;;;;;1.33;1.33;;;;;15.89;63.17;101029.19;2071795;28;46255;-60
2023/05/11 03:08:28;;;;;;;;;2.00;1.33;;;;;15.88;63.17;101025.63;2071706;28;46458;-64
2023/05/11 03:09:28;;;;;;;;;1.00;1.00;;;;;15.88;63.09;101022.94;2059360;28;45084;-62
2023/05/11 03:10:30;;;;;;;;;1.00;1.00;;;;;15.89;63.07;101023.81;2052577;28;46749;-63
2023/05/11 03:11:31;;;;;;;;;1.25;1.25;;;;;15.89;63.21;101026.50;2069797;28;45155;-61
2023/05/11 03:12:33;;;;;;;;;1.50;1.50;;;;;15.88;63.07;101022.09;2070243;28;46727;-63
2023/05/11 03:13:34;;;;;;;;;1.00;1.00;;;;;15.88;63.25;101025.63;2071504;28;46372;-63
2023/05/11 03:14:36;;;;;;;;;4.00;2.00;;;;;15.88;63.10;101030.97;2054078;28;45545;-63
2023/05/11 03:15:37;;;;;;;;;1.75;1.75;;;;;15.90;62.63;101033.59;2056365;28;46723;-63
2023/05/11 03:16:38;;;;;;;;;2.75;2.00;;;;;15.89;63.08;101024.69;2069084;28;46460;-62
2023/05/11 03:17:40;;;;;;;;;2.00;2.00;;;;;15.89;63.25;101026.50;2065721;28;46548;-64
2023/05/11 03:18:41;;;;;;;;;2.00;2.00;;;;;15.90;62.78;101022.91;2072084;28;46634;-63
2023/05/11 03:19:42;;;;;;;;;1.00;1.00;;;;;15.89;63.33;101022.03;2070828;28;46179;-63
2023/05/11 03:20:44;;;;;;;;;4.00;2.67;;;;;15.89;63.18;101027.38;2062653;28;46654;-61
2023/05/11 03:21:46;;;;;;;;;1.00;1.00;;;;;15.90;63.42;101028.25;2070843;28;46849;-63
2023/05/11 03:22:48;;;;;;;;;2.00;2.00;;;;;15.89;63.12;101021.16;2069019;28;46635;-63
2023/05/11 03:23:49;;;;;;;;;2.00;1.00;;;;;15.88;62.84;101022.94;2071773;28;46149;-62
2023/05/11 03:24:51;;;;;;;;;2.25;1.75;;;;;15.88;63.14;101027.44;2070097;28;45917;-63
2023/05/11 03:25:52;;;;;;;;;3.00;3.00;;;;;15.86;62.62;101024.78;2071144;28;46757;-64
2023/05/11 03:26:54;;;;;;;;;1.50;1.50;;;;;15.86;63.05;101019.44;2072259;28;47036;-62
2023/05/11 03:27:56;;;;;;;;;0.75;0.75;;;;;15.85;62.79;101025.72;2071025;28;46878;-62
2023/05/11 03:28:59;;;;;;;;;2.00;2.00;;;;;15.87;63.09;101022.97;2072051;28;46376;-63
2023/05/11 03:30:03;;;;;;;;;2.00;2.00;;;;;15.87;63.26;101023.84;2070660;28;47283;-63
2023/05/11 03:31:03;;;;;;;;;3.50;2.25;;;;;15.88;62.94;101022.09;2072485;28;46811;-62
2023/05/11 03:32:04;;;;;;;;;1.00;1.00;;;;;15.88;63.13;101022.09;2070861;28;45506;-63
2023/05/11 03:33:05;;;;;;;;;2.00;2.00;;;;;15.88;62.67;101025.63;2072927;28;46887;-61
2023/05/11 03:34:05;;;;;;;;;2.00;2.00;;;;;15.88;63.08;101020.28;2069565;28;46216;-63
2023/05/11 03:35:07;;;;;;;;;1.00;1.00;;;;;15.89;62.82;101021.16;2072300;28;46970;-63
2023/05/11 03:36:09;;;;;;;;;1.50;0.50;;;;;15.90;62.67;101017.53;2069190;28;46306;-64
2023/05/11 03:37:12;;;;;;;;;1.00;0.50;;;;;15.92;62.93;101021.03;2072742;28;45594;-63
2023/05/11 03:38:15;;;;;;;;;3.75;3.00;;;;;15.92;62.94;101031.72;2070620;28;45866;-63
2023/05/11 03:39:16;;;;;;;;;1.50;1.50;;;;;15.91;62.78;101019.28;2071544;28;46945;-62
2023/05/11 03:40:18;;;;;;;;;2.25;1.50;;;;;15.93;62.62;101021.91;2064047;28;46304;-63
2023/05/11 03:41:20;;;;;;;;;0.75;0.75;;;;;15.93;62.46;101028.13;2063134;28;46934;-63
2023/05/11 03:42:22;;;;;;;;;0.50;0.50;;;;;15.93;62.75;101025.44;2068792;28;46375;-63
2023/05/11 03:43:26;;;;;;;;;2.50;2.00;;;;;15.92;63.01;101026.38;2071192;28;46870;-63
2023/05/11 03:44:27;;;;;;;;;1.00;1.00;;;;;15.92;62.81;101028.19;2071409;28;46765;-63
2023/05/11 03:45:30;;;;;;;;;1.25;1.25;;;;;15.91;62.41;101021.09;2070221;28;46803;-61
2023/05/11 03:46:34;;;;;;;;;1.00;1.00;;;;;15.90;62.46;101022.91;2070656;28;46297;-62
2023/05/11 03:47:35;;;;;;;;;1.00;1.00;;;;;15.88;62.32;101025.63;2070226;28;46409;-61
2023/05/11 03:48:35;;;;;;;;;1.00;1.00;;;;;15.88;62.18;101025.63;2071146;28;46582;-63
2023/05/11 03:49:37;;;;;;;;;0.00;0.00;;;;;15.88;62.60;101024.75;2069681;28;46340;-62
2023/05/11 03:50:38;;;;;;;;;3.00;1.75;;;;;15.87;62.25;101036.38;2070965;28;45996;-62
2023/05/11 03:51:39;;;;;;;;;2.33;2.33;;;;;15.85;62.33;101017.69;2061741;28;46752;-63
2023/05/11 03:52:40;;;;;;;;;1.00;1.00;;;;;15.84;62.64;101025.78;2062033;28;47017;-62
2023/05/11 03:53:41;;;;;;;;;1.00;1.00;;;;;15.81;62.22;101029.47;2069093;28;46630;-63
2023/05/11 03:54:42;;;;;;;;;1.00;1.00;;;;;15.79;62.57;101025.09;2068886;28;46694;-63
2023/05/11 03:55:43;;;;;;;;;2.25;1.75;;;;;15.77;62.58;101021.63;2069867;28;46206;-62
2023/05/11 03:56:43;;;;;;;;;2.00;1.33;;;;;15.77;62.75;101026.97;2071105;28;46344;-62
2023/05/11 03:57:45;;;;;;;;;2.67;2.00;;;;;15.77;62.38;101026.97;2071399;28;46784;-63
2023/05/11 03:58:46;;;;;;;;;2.50;2.50;;;;;15.77;62.76;101027.84;2071941;28;46588;-63
2023/05/11 03:59:46;;;;;;;;;1.00;0.33;;;;;15.77;62.35;101022.50;2071246;28;46442;-63
2023/05/11 04:00:47;;;;;;;;;2.33;2.33;;;;;15.77;62.26;101017.13;2079774;28;45740;-63
2023/05/11 04:01:51;;;;;;;;;2.00;1.00;;;;;15.77;62.94;101010.91;2070426;28;47674;-63
2023/05/11 04:02:53;;;;;;;;;2.00;2.00;;;;;15.77;62.62;101018.94;2071137;28;47051;-63
2023/05/11 04:03:53;;;;;;;;;2.50;2.50;;;;;15.77;62.87;101011.78;2070304;28;46422;-62
2023/05/11 04:04:54;;;;;;;;;1.67;1.67;;;;;15.77;62.42;101018.94;2074980;28;46838;-62
2023/05/11 04:05:54;;;;;;;;;2.00;2.00;;;;;15.77;62.63;101017.13;2069355;28;46367;-62
2023/05/11 04:06:55;;;;;;;;;2.00;1.00;;;;;15.79;62.77;101025.09;2071229;28;46390;-62
2023/05/11 04:07:56;;;;;;;;;3.50;2.00;;;;;15.78;62.87;101018.88;2068865;28;46499;-62
2023/05/11 04:08:56;;;;;;;;;2.67;2.67;;;;;15.79;62.95;101014.41;2062911;28;46906;-62
2023/05/11 04:09:56;;;;;;;;;3.67;3.67;;;;;15.78;62.88;101026.03;2062232;28;46644;-64
2023/05/11 04:10:57;;;;;;;;;2.00;2.00;;;;;15.77;62.51;101019.81;2071174;28;46582;-62
2023/05/11 04:11:57;;;;;;;;;2.67;2.00;;;;;15.77;62.31;101021.63;2070275;28;47222;-62
2023/05/11 04:12:57;;;;;;;;;1.00;1.00;;;;;15.76;62.48;101010.03;2071897;28;46375;-64
2023/05/11 04:13:58;;;;;;;;;2.00;2.00;;;;;15.77;62.70;101010.91;2071080;28;46761;-64
2023/05/11 04:14:58;;;;;;;;;1.67;1.67;;;;;15.78;62.63;101020.69;2071199;28;46416;-61
2023/05/11 04:15:58;;;;;;;;;3.00;3.00;;;;;15.79;62.58;101011.72;2070085;28;46293;-61
2023/05/11 04:16:59;;;;;;;;;3.00;1.33;;;;;15.79;62.51;101011.72;2072290;28;46238;-62
2023/05/11 04:17:59;;;;;;;;;5.00;4.00;;;;;15.80;62.77;101021.50;2071284;28;45731;-63
2023/05/11 04:19:00;;;;;;;;;4.33;2.33;;;;;15.80;62.70;101013.47;2076170;28;46286;-63
2023/05/11 04:20:01;;;;;;;;;2.75;2.75;;;;;15.79;62.68;101025.97;2073496;28;46582;-64
2023/05/11 04:21:01;;;;;;;;;2.67;2.67;;;;;15.79;62.40;101014.41;2071736;28;45383;-63
2023/05/11 04:22:01;;;;;;;;;3.00;2.00;;;;;15.78;62.49;101016.19;2070232;28;45875;-60
2023/05/11 04:23:02;;;;;;;;;4.00;3.33;;;;;15.77;62.69;101019.81;2063366;28;47415;-62
2023/05/11 04:24:03;;;;;;;;;3.00;3.00;;;;;15.78;62.19;101026.03;2055947;28;46340;-62
2023/05/11 04:25:03;;;;;;;;;4.00;4.00;;;;;15.78;62.38;101018.00;2072538;28;46847;-63
2023/05/11 04:26:04;;;;;;;;;3.00;3.00;;;;;15.77;62.33;101018.94;2070615;28;46776;-62
2023/05/11 04:27:04;;;;;;;;;3.33;1.67;;;;;15.76;62.63;101022.56;2072180;28;46226;-62
2023/05/11 04:28:05;;;;;;;;;2.00;2.00;;;;;15.75;62.75;101019.00;2069857;28;46643;-63
2023/05/11 04:29:05;;;;;;;;;1.00;1.00;;;;;15.75;62.70;101021.69;2071817;28;46419;-62
2023/05/11 04:30:06;;;;;;;;;2.00;2.00;;;;;15.76;62.49;101020.75;2070354;28;46219;-63
2023/05/11 04:31:07;;;;;;;;;3.00;2.50;;;;;15.76;62.32;101020.75;2071392;28;47337;-62
2023/05/11 04:32:07;;;;;;;;;2.67;2.67;;;;;15.76;62.55;101025.22;2069685;28;46320;-61
2023/05/11 04:33:07;;;;;;;;;5.00;5.00;;;;;15.74;62.18;101019.91;2077259;28;45941;-63
2023/05/11 04:34:07;;;;;;;;;4.00;4.00;;;;;15.74;62.23;101019.03;2069319;28;46776;-64
2023/05/11 04:35:08;;;;;;;;;3.67;3.67;;;;;15.72;62.17;101018.22;2071728;28;45960;-63
2023/05/11 04:36:09;;;;;;;;;2.67;2.67;;;;;15.69;62.70;101019.22;2070733;28;46287;-63
2023/05/11 04:37:09;;;;;;;;;1.33;1.33;;;;;15.67;62.69;101021.09;2068587;28;46673;-63
2023/05/11 04:38:09;;;;;;;;;5.33;4.00;;;;;15.66;62.57;101024.69;2069374;28;45561;-63
2023/05/11 04:39:10;;;;;;;;;1.00;1.00;;;;;15.65;62.48;101022.09;2071514;28;46938;-62
2023/05/11 04:40:10;;;;;;;;;4.67;4.33;;;;;15.65;62.44;101022.09;2069630;28;46877;-62
2023/05/11 04:41:12;;;;;;;;;3.33;3.33;;;;;15.64;62.46;101018.53;2071963;28;46272;-63
2023/05/11 04:42:13;;;;;;;;;4.00;3.25;;;;;15.66;62.57;101018.47;2069053;28;46202;-63
2023/05/11 04:43:14;;;;;;;;;6.00;4.67;;;;;15.67;62.38;101022.91;2070831;28;46186;-63
2023/05/11 04:44:14;;;;;;;;;5.00;4.25;;;;;15.66;62.65;101021.16;2069119;28;46757;-64
2023/05/11 04:45:15;;;;;;;;;2.33;2.33;;;;;15.68;62.61;101021.97;2071844;28;46650;-62
2023/05/11 04:46:15;;;;;;;;;4.00;4.00;;;;;15.67;62.70;101020.22;2069059;28;46438;-61
2023/05/11 04:47:15;;;;;;;;;4.00;3.33;;;;;15.68;62.67;101021.97;2078501;28;46235;-62
2023/05/11 04:48:16;;;;;;;;;3.33;3.33;;;;;15.69;62.30;101019.22;2077200;28;46296;-61
2023/05/11 04:49:16;;;;;;;;;4.00;3.00;;;;;15.67;62.52;101021.09;2071785;28;46698;-63
2023/05/11 04:50:16;;;;;;;;;4.00;3.00;;;;;15.66;62.03;101019.34;2068120;28;46564;-63
2023/05/11 04:51:17;;;;;;;;;5.33;5.33;;;;;15.67;62.58;101020.22;2071290;28;46842;-63
2023/05/11 04:52:17;;;;;;;;;6.33;4.00;;;;;15.65;62.35;101025.63;2070046;28;46526;-62